.
WxDataArchive / Data Records for 2006-02-06
2006-02-05 February 2006 2006-02-07

Data Records for Monday, 06 February 2006

Time	Temp	Chill	HIndex	Humid	Dewpt	 Wind 	HiWind	WindDir	Rain 	Barom 
-----	----	-----	------	-----	-----	------	------	-------	-----	----- 
00:00	26.1	26.1	26.1	84	21.9	2	5	248	0.00	29.856 
00:05	26.3	21.5	26.3	82	21.6	4	10	270	0.00	29.856 
00:10	26.6	26.6	26.6	81	21.6	3	6	270	0.00	29.856 
00:15	26.7	26.7	26.7	79	21.1	3	6	270	0.00	29.860 
00:20	26.9	26.9	26.9	79	21.3	2	5	248	0.00	29.860 
00:25	27.0	27.0	27.0	78	21.1	3	7	270	0.00	29.860 
00:30	27.2	27.2	27.2	77	21.0	2	5	270	0.00	29.861 
00:35	27.2	27.2	27.2	77	21.0	2	4	270	0.00	29.861 
00:40	27.0	27.0	27.0	77	20.8	2	4	248	0.00	29.861 
00:45	26.9	26.9	26.9	78	21.0	2	10	270	0.00	29.861 
00:50	27.0	27.0	27.0	78	21.1	3	9	270	0.00	29.861 
00:55	27.0	27.0	27.0	79	21.4	2	7	270	0.00	29.861 
01:00	27.0	27.0	27.0	79	21.4	2	7	270	0.00	29.859 
01:05	27.0	27.0	27.0	79	21.4	2	6	270	0.00	29.859 
01:10	27.0	27.0	27.0	77	20.8	2	5	270	0.00	29.859 
01:15	27.2	27.2	27.2	76	20.7	2	4	270	0.00	29.856 
01:20	27.2	27.2	27.2	73	19.7	3	9	270	0.00	29.856 
01:25	27.3	27.3	27.3	72	19.5	3	9	270	0.00	29.856 
01:30	27.2	27.2	27.2	69	18.4	2	6	270	0.00	29.855 
01:35	27.2	27.2	27.2	69	18.4	2	5	270	0.00	29.855 
01:40	27.3	27.3	27.3	67	17.8	3	6	270	0.00	29.855 
01:45	27.3	27.3	27.3	67	17.8	3	7	270	0.00	29.855 
01:50	27.3	27.3	27.3	66	17.5	3	5	270	0.00	29.855 
01:55	27.3	27.3	27.3	66	17.5	2	5	270	0.00	29.855 
02:00	27.3	27.3	27.3	65	17.1	3	7	270	0.00	29.853 
02:05	27.2	27.2	27.2	66	17.4	3	7	270	0.00	29.853 
02:10	27.2	27.2	27.2	67	17.7	2	5	270	0.00	29.853 
02:15	27.0	27.0	27.0	66	17.2	3	9	270	0.00	29.856 
02:20	26.9	26.9	26.9	67	17.4	2	6	248	0.00	29.856 
02:25	26.7	26.7	26.7	67	17.2	2	6	270	0.00	29.856 
02:30	26.7	26.7	26.7	67	17.2	3	6	248	0.00	29.858 
02:35	26.6	26.6	26.6	66	16.8	3	6	270	0.00	29.858 
02:40	26.3	26.3	26.3	67	16.9	2	5	248	0.00	29.858 
02:45	26.0	26.0	26.0	67	16.6	2	5	248	0.00	29.859 
02:50	26.0	26.0	26.0	67	16.6	3	5	270	0.00	29.859 
02:55	25.8	25.8	25.8	68	16.7	3	9	270	0.00	29.859 
03:00	25.7	25.7	25.7	68	16.6	2	5	248	0.00	29.865 
03:05	25.6	25.6	25.6	68	16.5	3	9	248	0.00	29.865 
03:10	25.4	25.4	25.4	69	16.7	3	6	248	0.00	29.865 
03:15	25.3	25.3	25.3	69	16.6	2	5	248	0.00	29.871 
03:20	25.0	25.0	25.0	70	16.6	2	9	248	0.00	29.871 
03:25	24.7	24.7	24.7	71	16.7	3	10	248	0.00	29.871 
03:30	24.4	24.4	24.4	72	16.7	2	5	248	0.00	29.872 
03:35	24.2	24.2	24.2	73	16.8	3	7	248	0.00	29.872 
03:40	24.1	24.1	24.1	73	16.7	2	5	248	0.00	29.872 
03:45	23.9	23.9	23.9	73	16.5	2	5	248	0.00	29.879 
03:50	23.8	23.8	23.8	73	16.4	3	9	270	0.00	29.879 
03:55	23.8	23.8	23.8	74	16.7	2	7	248	0.00	29.879 
04:00	23.6	23.6	23.6	74	16.6	3	6	270	0.00	29.883 
04:05	23.6	23.6	23.6	74	16.6	3	6	248	0.00	29.883 
04:10	23.6	18.4	23.6	74	16.6	4	9	248	0.00	29.883 
04:15	23.6	23.6	23.6	74	16.6	3	10	270	0.00	29.886 
04:20	23.5	23.5	23.5	74	16.5	3	8	248	0.00	29.886 
04:25	23.5	23.5	23.5	74	16.5	2	6	248	0.00	29.886 
04:30	23.3	23.3	23.3	74	16.3	3	10	270	0.00	29.886 
04:35	23.3	23.3	23.3	74	16.3	3	9	248	0.00	29.886 
04:40	23.3	18.0	23.3	74	16.3	4	10	270	0.00	29.886 
04:45	23.3	23.3	23.3	74	16.3	3	9	270	0.00	29.889 
04:50	23.3	23.3	23.3	74	16.3	3	10	270	0.00	29.889 
04:55	23.3	18.0	23.3	74	16.3	4	10	270	0.00	29.889 
05:00	23.2	23.2	23.2	74	16.2	2	4	270	0.00	29.889 
05:05	23.0	23.0	23.0	74	16.0	2	6	270	0.00	29.889 
05:10	23.0	23.0	23.0	75	16.3	3	10	270	0.00	29.889 
05:15	23.0	17.7	23.0	75	16.3	4	11	270	0.00	29.887 
05:20	22.9	22.9	22.9	75	16.2	3	9	270	0.00	29.887 
05:25	22.7	22.7	22.7	75	16.0	3	6	270	0.00	29.887 
05:30	22.7	22.7	22.7	75	16.0	3	11	270	0.00	29.890 
05:35	22.7	22.7	22.7	75	16.0	3	10	270	0.00	29.890 
05:40	22.7	22.7	22.7	75	16.0	3	9	270	0.00	29.890 
05:45	22.7	17.3	22.7	75	16.0	4	9	270	0.00	29.889 
05:50	22.5	22.5	22.5	75	15.8	3	9	270	0.00	29.889 
05:55	22.5	22.5	22.5	75	15.8	3	6	270	0.00	29.889 
06:00	22.5	22.5	22.5	75	15.8	3	7	270	0.00	29.900 
06:05	22.4	22.4	22.4	75	15.7	3	10	270	0.00	29.900 
06:10	22.2	22.2	22.2	76	15.8	3	7	270	0.00	29.900 
06:15	22.2	22.2	22.2	76	15.8	2	5	270	0.00	29.905 
06:20	22.2	16.8	22.2	76	15.8	4	10	248	0.00	29.905 
06:25	22.2	16.8	22.2	76	15.8	4	9	248	0.00	29.905 
06:30	22.1	22.1	22.1	76	15.7	3	11	270	0.00	29.906 
06:35	21.9	21.9	21.9	76	15.5	3	9	248	0.00	29.906 
06:40	21.9	16.4	21.9	76	15.5	4	9	248	0.00	29.906 
06:45	21.8	21.8	21.8	76	15.4	2	6	270	0.00	29.915 
06:50	21.8	21.8	21.8	77	15.7	3	10	270	0.00	29.915 
06:55	21.8	21.8	21.8	77	15.7	3	10	270	0.00	29.915 
07:00	21.6	21.6	21.6	76	15.2	3	10	270	0.00	29.919 
07:05	21.6	21.6	21.6	77	15.5	3	7	270	0.00	29.919 
07:10	21.4	21.4	21.4	77	15.3	3	9	270	0.00	29.919 
07:15	21.4	21.4	21.4	76	15.0	2	7	270	0.00	29.925 
07:20	21.4	21.4	21.4	76	15.0	2	10	270	0.00	29.925 
07:25	21.3	21.3	21.3	77	15.2	2	8	248	0.00	29.925 
07:30	21.3	21.3	21.3	77	15.2	2	7	270	0.00	29.928 
07:35	21.1	21.1	21.1	76	14.7	3	7	248	0.00	29.928 
07:40	21.1	21.1	21.1	76	14.7	3	7	270	0.00	29.928 
07:45	21.0	21.0	21.0	77	14.9	2	6	270	0.00	29.934 
07:50	21.0	21.0	21.0	77	14.9	3	9	270	0.00	29.934 
07:55	20.8	20.8	20.8	77	14.7	3	10	270	0.00	29.934 
08:00	20.8	20.8	20.8	77	14.7	3	12	270	0.00	29.932 
08:05	20.8	20.8	20.8	77	14.7	3	7	270	0.00	29.932 
08:10	20.8	20.8	20.8	76	14.5	3	10	270	0.00	29.932 
08:15	20.8	20.8	20.8	76	14.5	3	9	270	0.00	29.935 
08:20	21.0	15.4	21.0	76	14.6	4	10	270	0.00	29.935 
08:25	21.3	21.3	21.3	75	14.6	3	7	270	0.00	29.935 
08:30	21.4	15.8	21.4	74	14.4	4	11	270	0.00	29.946 
08:35	21.6	16.1	21.6	74	14.6	4	8	248	0.00	29.946 
08:40	21.8	15.1	21.8	74	14.8	5	16	270	0.00	29.946 
08:45	21.8	15.1	21.8	73	14.5	5	15	270	0.00	29.949 
08:50	22.1	16.6	22.1	73	14.8	4	13	270	0.00	29.949 
08:55	22.2	16.8	22.2	72	14.6	4	12	270	0.00	29.949 
09:00	22.2	16.8	22.2	73	14.9	4	11	270	0.00	29.955 
09:05	22.4	17.0	22.4	73	15.1	4	12	270	0.00	29.955 
09:10	22.5	15.9	22.5	72	14.9	5	13	270	0.00	29.955 
09:15	22.7	15.2	22.7	71	14.7	6	15	270	0.00	29.956 
09:20	22.9	17.6	22.9	71	14.9	4	10	248	0.00	29.956 
09:25	23.2	17.9	23.2	71	15.2	4	9	270	0.00	29.956 
09:30	23.2	16.7	23.2	71	15.2	5	13	270	0.00	29.959 
09:35	23.5	18.3	23.5	70	15.2	4	11	270	0.00	29.959 
09:40	23.6	23.6	23.6	69	14.9	3	7	270	0.00	29.959 
09:45	23.6	18.4	23.6	69	14.9	4	12	270	0.00	29.960 
09:50	23.9	18.7	23.9	69	15.2	4	11	270	0.00	29.960 
09:55	24.1	19.0	24.1	69	15.4	4	9	270	0.00	29.960 
10:00	24.1	17.8	24.1	69	15.4	5	14	270	0.00	29.955 
10:05	24.2	19.1	24.2	69	15.5	4	13	270	0.00	29.955 
10:10	24.4	19.3	24.4	68	15.4	4	10	270	0.00	29.955 
10:15	24.5	19.4	24.5	68	15.5	4	10	270	0.00	29.952 
10:20	24.7	19.6	24.7	69	16.0	4	10	270	0.00	29.952 
10:25	25.1	20.1	25.1	66	15.4	4	10	270	0.00	29.952 
10:30	25.1	19.0	25.1	66	15.4	5	13	270	0.00	29.958 
10:35	25.1	20.1	25.1	66	15.4	4	7	270	0.00	29.958 
10:40	25.4	25.4	25.4	68	16.3	3	10	270	0.00	29.958 
10:45	25.6	20.7	25.6	67	16.2	4	11	270	0.00	29.964 
10:50	25.7	20.8	25.7	67	16.3	4	11	270	0.00	29.964 
10:55	25.8	20.9	25.8	65	15.7	4	8	270	0.00	29.964 
11:00	25.8	19.8	25.8	65	15.7	5	11	270	0.00	29.968 
11:05	26.0	21.1	26.0	66	16.2	4	11	270	0.00	29.968 
11:10	26.0	20.0	26.0	64	15.5	5	12	270	0.00	29.968 
11:15	26.3	21.5	26.3	67	16.9	4	11	270	0.00	29.976 
11:20	26.1	20.1	26.1	64	15.6	5	12	270	0.00	29.976 
11:25	26.4	26.4	26.4	65	16.3	3	9	270	0.00	29.976 
11:30	26.6	21.8	26.6	65	16.4	4	10	270	0.00	29.975 
11:35	26.6	20.7	26.6	63	15.7	5	11	270	0.00	29.975 
11:40	26.7	22.0	26.7	63	15.8	4	11	270	0.00	29.975 
11:45	26.9	22.2	26.9	64	16.4	4	12	270	0.00	29.978 
11:50	26.9	21.1	26.9	62	15.6	5	13	270	0.00	29.978 
11:55	27.0	22.3	27.0	63	16.1	4	12	270	0.00	29.978 
12:00	27.0	22.3	27.0	63	16.1	4	11	270	0.00	29.979 
12:05	27.3	21.6	27.3	64	16.8	5	12	270	0.00	29.979 
12:10	27.2	20.5	27.2	64	16.7	6	12	270	0.00	29.979 
12:15	27.2	20.5	27.2	64	16.7	6	14	270	0.00	29.975 
12:20	27.5	21.8	27.5	64	16.9	5	10	270	0.00	29.975 
12:25	27.8	22.1	27.8	62	16.5	5	10	270	0.00	29.975 
12:30	27.9	22.3	27.9	64	17.3	5	11	270	0.00	29.975 
12:35	28.4	28.4	28.4	62	17.1	3	10	270	0.00	29.975 
12:40	28.4	22.8	28.4	63	17.4	5	14	270	0.00	29.975 
12:45	28.4	23.9	28.4	62	17.1	4	9	270	0.00	29.972 
12:50	28.5	23.0	28.5	62	17.2	5	12	270	0.00	29.972 
12:55	29.0	24.6	29.0	58	16.1	4	10	270	0.00	29.972 
13:00	28.8	24.4	28.8	58	15.9	4	10	270	0.00	29.965 
13:05	29.0	24.6	29.0	60	16.9	4	11	270	0.00	29.965 
13:10	29.0	23.6	29.0	59	16.5	5	13	270	0.00	29.965 
13:15	29.0	23.6	29.0	59	16.5	5	10	270	0.00	29.969 
13:20	29.3	25.0	29.3	58	16.4	4	11	270	0.00	29.969 
13:25	29.4	24.0	29.4	59	16.9	5	12	270	0.00	29.969 
13:30	29.7	24.4	29.7	58	16.8	5	15	270	0.00	29.968 
13:35	29.7	23.5	29.7	61	17.9	6	13	270	0.00	29.968 
13:40	30.0	25.8	30.0	61	18.2	4	11	270	0.00	29.968 
13:45	30.4	30.4	30.4	59	17.8	3	7	270	0.00	29.964 
13:50	30.6	26.5	30.6	58	17.6	4	10	270	0.00	29.964 
13:55	30.4	25.2	30.4	56	16.6	5	14	270	0.00	29.964 
14:00	30.6	26.5	30.6	58	17.6	4	11	270	0.00	29.962 
14:05	30.7	26.6	30.7	57	17.3	4	7	270	0.00	29.962 
14:10	31.0	26.9	31.0	58	18.0	4	10	270	0.00	29.962 
14:15	31.0	26.9	31.0	58	18.0	4	10	270	0.00	29.960 
14:20	31.0	26.9	31.0	55	16.8	4	7	270	0.00	29.960 
14:25	31.3	31.3	31.3	57	17.9	3	12	270	0.00	29.960 
14:30	31.6	27.6	31.6	56	17.7	4	10	270	0.00	29.959 
14:35	31.3	27.3	31.3	56	17.4	4	11	270	0.00	29.959 
14:40	31.5	27.5	31.5	55	17.2	4	7	270	0.00	29.959 
14:45	31.6	31.6	31.6	57	18.1	3	6	270	0.00	29.960 
14:50	31.8	31.8	31.8	56	17.9	3	6	270	0.00	29.960 
14:55	31.8	31.8	31.8	55	17.5	3	5	270	0.00	29.960 
15:00	32.1	32.1	32.1	53	16.9	3	7	270	0.00	29.962 
15:05	32.1	32.1	32.1	54	17.4	3	10	270	0.00	29.962 
15:10	31.9	27.0	31.9	53	16.7	5	16	270	0.00	29.962 
15:15	32.1	28.2	32.1	53	16.9	4	9	270	0.00	29.972 
15:20	31.8	27.8	31.8	53	16.6	4	10	270	0.00	29.972 
15:25	32.1	32.1	32.1	53	16.9	3	7	270	0.00	29.972 
15:30	32.7	32.7	32.7	53	17.5	3	7	270	0.00	29.972 
15:35	32.5	27.7	32.5	50	16.0	5	11	270	0.00	29.972 
15:40	32.4	28.5	32.4	50	15.9	4	11	270	0.00	29.972 
15:45	32.4	28.5	32.4	49	15.4	4	12	270	0.00	29.973 
15:50	32.1	32.1	32.1	52	16.5	3	6	270	0.00	29.973 
15:55	32.4	27.5	32.4	49	15.4	5	14	270	0.00	29.973 
16:00	32.4	27.5	32.4	50	15.9	5	10	270	0.00	29.973 
16:05	32.2	28.3	32.2	51	16.1	4	7	270	0.00	29.973 
16:10	32.2	28.3	32.2	50	15.7	4	9	270	0.00	29.973 
16:15	32.1	28.2	32.1	51	16.0	4	8	270	0.00	29.976 
16:20	32.1	28.2	32.1	51	16.0	4	8	270	0.00	29.976 
16:25	31.9	28.0	31.9	51	15.9	4	7	270	0.00	29.976 
16:30	31.8	31.8	31.8	53	16.6	3	9	270	0.00	29.976 
16:35	31.9	28.0	31.9	53	16.7	4	7	270	0.00	29.976 
16:40	31.8	31.8	31.8	52	16.2	3	10	270	0.00	29.976 
16:45	31.9	28.0	31.9	53	16.7	4	10	270	0.00	29.977 
16:50	31.8	31.8	31.8	51	15.8	3	10	270	0.00	29.977 
16:55	31.6	31.6	31.6	52	16.0	3	9	270	0.00	29.977 
17:00	31.6	31.6	31.6	53	16.5	3	9	270	0.00	29.979 
17:05	31.5	31.5	31.5	53	16.4	2	4	270	0.00	29.979 
17:10	31.3	31.3	31.3	53	16.2	2	4	270	0.00	29.979 
17:15	31.2	31.2	31.2	53	16.1	3	7	270	0.00	29.990 
17:20	31.0	31.0	31.0	54	16.3	2	4	270	0.00	29.990 
17:25	30.9	30.9	30.9	53	15.8	2	6	270	0.00	29.990 
17:30	30.7	30.7	30.7	53	15.6	2	6	270	0.00	29.992 
17:35	30.6	30.6	30.6	58	17.6	2	5	315	0.00	29.992 
17:40	30.4	30.4	30.4	55	16.2	2	5	270	0.00	29.992 
17:45	30.1	30.1	30.1	54	15.5	1	4	292	0.00	29.998 
17:50	30.0	30.0	30.0	54	15.4	1	5	270	0.00	29.998 
17:55	29.8	29.8	29.8	54	15.2	1	5	248	0.00	29.998 
18:00	29.5	29.5	29.5	54	14.9	2	4	292	0.00	30.006 
18:05	29.4	29.4	29.4	54	14.8	2	5	248	0.00	30.006 
18:10	29.4	29.4	29.4	54	14.8	1	3	270	0.00	30.006 
18:15	29.1	29.1	29.1	55	15.0	1	5	248	0.00	30.010 
18:20	29.0	29.0	29.0	55	14.9	1	4	248	0.00	30.010 
18:25	28.8	28.8	28.8	56	15.1	1	3	248	0.00	30.010 
18:30	28.7	28.7	28.7	55	14.6	2	4	248	0.00	30.011 
18:35	28.7	28.7	28.7	55	14.6	2	4	270	0.00	30.011 
18:40	28.7	28.7	28.7	55	14.6	2	5	270	0.00	30.011 
18:45	28.5	28.5	28.5	55	14.4	2	6	270	0.00	30.013 
18:50	28.4	28.4	28.4	56	14.7	1	4	270	0.00	30.013 
18:55	28.2	28.2	28.2	56	14.5	1	5	270	0.00	30.013 
19:00	28.2	28.2	28.2	56	14.5	2	5	248	0.00	30.024 
19:05	28.2	28.2	28.2	57	14.9	1	3	270	0.00	30.024 
19:10	28.1	28.1	28.1	57	14.9	1	3	270	0.00	30.024 
19:15	27.9	27.9	27.9	57	14.7	1	4	248	0.00	30.029 
19:20	27.9	27.9	27.9	57	14.7	1	3	248	0.00	30.029 
19:25	27.8	27.8	27.8	58	15.0	1	2	248	0.00	30.029 
19:30	27.6	27.6	27.6	58	14.8	1	3	248	0.00	30.031 
19:35	27.5	27.5	27.5	59	15.1	1	3	248	0.00	30.031 
19:40	27.5	27.5	27.5	59	15.1	1	2	248	0.00	30.031 
19:45	27.5	27.5	27.5	58	14.7	1	5	248	0.00	30.033 
19:50	27.5	27.5	27.5	58	14.7	1	5	248	0.00	30.033 
19:55	27.5	27.5	27.5	59	15.1	1	2	248	0.00	30.033 
20:00	27.2	27.2	27.2	59	14.8	1	2	248	0.00	30.036 
20:05	27.2	27.2	27.2	59	14.8	1	3	248	0.00	30.036 
20:10	27.0	27.0	27.0	59	14.6	1	3	248	0.00	30.036 
20:15	27.0	27.0	27.0	60	15.0	1	2	248	0.00	30.038 
20:20	26.9	26.9	26.9	60	14.9	1	3	225	0.00	30.038 
20:25	26.9	26.9	26.9	60	14.9	1	2	248	0.00	30.038 
20:30	26.9	26.9	26.9	60	14.9	1	3	248	0.00	30.038 
20:35	26.7	26.7	26.7	60	14.7	1	3	248	0.00	30.038 
20:40	26.7	26.7	26.7	60	14.7	1	3	248	0.00	30.038 
20:45	26.7	26.7	26.7	60	14.7	1	3	248	0.00	30.033 
20:50	26.7	26.7	26.7	60	14.7	1	3	248	0.00	30.033 
20:55	26.6	26.6	26.6	60	14.6	1	2	248	0.00	30.033 
21:00	26.6	26.6	26.6	60	14.6	1	3	248	0.00	30.032 
21:05	26.4	26.4	26.4	61	14.8	1	2	248	0.00	30.032 
21:10	26.3	26.3	26.3	61	14.7	1	2	248	0.00	30.032 
21:15	26.3	26.3	26.3	61	14.7	1	2	248	0.00	30.034 
21:20	26.3	26.3	26.3	61	14.7	1	2	248	0.00	30.034 
21:25	26.3	26.3	26.3	61	14.7	1	3	248	0.00	30.034 
21:30	26.3	26.3	26.3	61	14.7	1	2	248	0.00	30.036 
21:35	26.1	26.1	26.1	61	14.5	0	2	248	0.00	30.036 
21:40	26.0	26.0	26.0	61	14.4	1	3	248	0.00	30.036 
21:45	26.0	26.0	26.0	61	14.4	1	3	248	0.00	30.036 
21:50	25.8	25.8	25.8	61	14.2	1	2	248	0.00	30.036 
21:55	25.8	25.8	25.8	61	14.2	2	4	248	0.00	30.036 
22:00	25.7	25.7	25.7	62	14.5	0	1	248	0.00	30.040 
22:05	25.6	25.6	25.6	62	14.4	0	2	248	0.00	30.040 
22:10	25.6	25.6	25.6	62	14.4	1	3	248	0.00	30.040 
22:15	25.6	25.6	25.6	62	14.4	0	1	248	0.00	30.040 
22:20	25.4	25.4	25.4	62	14.2	1	3	248	0.00	30.040 
22:25	25.4	25.4	25.4	62	14.2	1	2	248	0.00	30.040 
22:30	25.4	25.4	25.4	62	14.2	0	2	248	0.00	30.043 
22:35	25.3	25.3	25.3	62	14.1	1	3	248	0.00	30.043 
22:40	25.3	25.3	25.3	62	14.1	1	2	248	0.00	30.043 
22:45	25.3	25.3	25.3	63	14.5	1	2	248	0.00	30.046 
22:50	25.1	25.1	25.1	63	14.3	0	1	248	0.00	30.046 
22:55	25.0	25.0	25.0	63	14.2	1	3	248	0.00	30.046 
23:00	25.0	25.0	25.0	64	14.6	1	4	248	0.00	30.048 
23:05	24.8	24.8	24.8	64	14.4	0	1	248	0.00	30.048 
23:10	24.7	24.7	24.7	64	14.3	0	1	248	0.00	30.048 
23:15	24.4	24.4	24.4	65	14.3	0	1	248	0.00	30.047 
23:20	24.4	24.4	24.4	65	14.3	0	1	248	0.00	30.047 
23:25	24.2	24.2	24.2	65	14.2	0	1	248	0.00	30.047 
23:30	24.1	24.1	24.1	66	14.4	0	1	248	0.00	30.046 
23:35	23.9	23.9	23.9	66	14.2	0	1	248	0.00	30.046 
23:40	23.8	23.8	23.8	66	14.1	0	1	248	0.00	30.046 
23:45	23.8	23.8	23.8	66	14.1	0	0	---	0.00	30.046 
23:50	23.6	23.6	23.6	66	13.9	0	0	---	0.00	30.046 
23:55	23.6	23.6	23.6	66	13.9	0	1	248	0.00	30.046 

CoCoRaHS
IN-AL-39
A2 Web Hosting
Creative Commons License
GoDaddy
Look for:

loaded 2017-10-19 14:35:49 • last modified 2010-11-18 10:43:29
Privacy PolicyDisclaimer
• wx.awcolley.com is powered by PmWiki v.2002016 •
• all content (unless otherwise noted) © 2017 A W Colley